sensor_id;sensor_type;location;lat;lon;timestamp;temperature;humidity
4501;DHT22;2263;54.654;9.410;2023-07-08T00:02:13;20.90;67.20
4501;DHT22;2263;54.654;9.410;2023-07-08T00:04:42;20.90;67.30
4501;DHT22;2263;54.654;9.410;2023-07-08T00:07:11;20.90;67.30
4501;DHT22;2263;54.654;9.410;2023-07-08T00:09:40;20.90;67.50
4501;DHT22;2263;54.654;9.410;2023-07-08T00:12:10;20.90;67.70
4501;DHT22;2263;54.654;9.410;2023-07-08T00:14:38;20.80;67.30
4501;DHT22;2263;54.654;9.410;2023-07-08T00:17:11;20.80;67.70
4501;DHT22;2263;54.654;9.410;2023-07-08T00:19:40;20.80;67.40
4501;DHT22;2263;54.654;9.410;2023-07-08T00:22:12;20.80;67.70
4501;DHT22;2263;54.654;9.410;2023-07-08T00:24:44;20.80;67.20
4501;DHT22;2263;54.654;9.410;2023-07-08T00:27:12;20.70;67.50
4501;DHT22;2263;54.654;9.410;2023-07-08T00:29:43;20.70;67.30
4501;DHT22;2263;54.654;9.410;2023-07-08T00:32:13;20.70;67.20
4501;DHT22;2263;54.654;9.410;2023-07-08T00:34:41;20.60;67.40
4501;DHT22;2263;54.654;9.410;2023-07-08T00:37:12;20.60;67.20
4501;DHT22;2263;54.654;9.410;2023-07-08T00:39:40;20.60;67.10
4501;DHT22;2263;54.654;9.410;2023-07-08T00:42:26;20.60;67.40
4501;DHT22;2263;54.654;9.410;2023-07-08T00:44:55;20.50;66.80
4501;DHT22;2263;54.654;9.410;2023-07-08T00:47:23;20.50;67.00
4501;DHT22;2263;54.654;9.410;2023-07-08T00:49:57;20.50;67.10
4501;DHT22;2263;54.654;9.410;2023-07-08T00:52:26;20.40;67.40
4501;DHT22;2263;54.654;9.410;2023-07-08T00:55:01;20.40;67.30
4501;DHT22;2263;54.654;9.410;2023-07-08T00:57:35;20.40;67.40
4501;DHT22;2263;54.654;9.410;2023-07-08T01:00:15;20.30;66.80
4501;DHT22;2263;54.654;9.410;2023-07-08T01:02:51;20.40;67.40
4501;DHT22;2263;54.654;9.410;2023-07-08T01:05:24;20.30;67.00
4501;DHT22;2263;54.654;9.410;2023-07-08T01:07:58;20.30;67.30
4501;DHT22;2263;54.654;9.410;2023-07-08T01:10:37;20.30;67.30
4501;DHT22;2263;54.654;9.410;2023-07-08T01:13:08;20.30;67.40
4501;DHT22;2263;54.654;9.410;2023-07-08T01:15:42;20.20;67.00
4501;DHT22;2263;54.654;9.410;2023-07-08T01:18:13;20.20;66.80
4501;DHT22;2263;54.654;9.410;2023-07-08T01:20:45;20.20;67.20
4501;DHT22;2263;54.654;9.410;2023-07-08T01:23:17;20.10;67.20
4501;DHT22;2263;54.654;9.410;2023-07-08T01:25:46;20.10;66.90
4501;DHT22;2263;54.654;9.410;2023-07-08T01:28:17;20.10;66.80
4501;DHT22;2263;54.654;9.410;2023-07-08T01:30:45;20.10;67.10
4501;DHT22;2263;54.654;9.410;2023-07-08T01:33:21;20.10;67.00
4501;DHT22;2263;54.654;9.410;2023-07-08T01:35:52;20.00;66.80
4501;DHT22;2263;54.654;9.410;2023-07-08T01:38:24;20.00;67.00
4501;DHT22;2263;54.654;9.410;2023-07-08T01:40:55;20.00;66.80
4501;DHT22;2263;54.654;9.410;2023-07-08T01:43:24;20.00;66.90
4501;DHT22;2263;54.654;9.410;2023-07-08T01:45:52;19.90;66.80
4501;DHT22;2263;54.654;9.410;2023-07-08T01:48:22;19.90;66.50
4501;DHT22;2263;54.654;9.410;2023-07-08T01:51:08;19.90;66.70
4501;DHT22;2263;54.654;9.410;2023-07-08T01:53:38;19.80;66.70
4501;DHT22;2263;54.654;9.410;2023-07-08T01:56:08;19.80;66.70
4501;DHT22;2263;54.654;9.410;2023-07-08T01:58:36;19.80;66.80
4501;DHT22;2263;54.654;9.410;2023-07-08T02:01:04;19.80;66.60
4501;DHT22;2263;54.654;9.410;2023-07-08T02:03:32;19.80;66.60
4501;DHT22;2263;54.654;9.410;2023-07-08T02:06:00;19.70;66.50
4501;DHT22;2263;54.654;9.410;2023-07-08T02:08:28;19.70;66.70
4501;DHT22;2263;54.654;9.410;2023-07-08T02:10:57;19.70;66.20
4501;DHT22;2263;54.654;9.410;2023-07-08T02:13:26;19.60;66.90
4501;DHT22;2263;54.654;9.410;2023-07-08T02:15:54;19.60;66.40
4501;DHT22;2263;54.654;9.410;2023-07-08T02:18:21;19.60;66.20
4501;DHT22;2263;54.654;9.410;2023-07-08T02:20:52;19.50;66.50
4501;DHT22;2263;54.654;9.410;2023-07-08T02:23:20;19.50;66.30
4501;DHT22;2263;54.654;9.410;2023-07-08T02:25:52;19.50;66.70
4501;DHT22;2263;54.654;9.410;2023-07-08T02:28:20;19.50;66.50
4501;DHT22;2263;54.654;9.410;2023-07-08T02:30:47;19.50;66.70
4501;DHT22;2263;54.654;9.410;2023-07-08T02:33:15;19.50;66.80
4501;DHT22;2263;54.654;9.410;2023-07-08T02:35:45;19.50;66.70
4501;DHT22;2263;54.654;9.410;2023-07-08T02:38:15;19.40;66.20
4501;DHT22;2263;54.654;9.410;2023-07-08T02:40:43;19.40;66.30
4501;DHT22;2263;54.654;9.410;2023-07-08T02:43:11;19.30;66.30
4501;DHT22;2263;54.654;9.410;2023-07-08T02:45:38;19.30;66.90
4501;DHT22;2263;54.654;9.410;2023-07-08T02:48:06;19.30;66.30
4501;DHT22;2263;54.654;9.410;2023-07-08T02:50:34;19.30;66.30
4501;DHT22;2263;54.654;9.410;2023-07-08T02:53:01;19.20;66.10
4501;DHT22;2263;54.654;9.410;2023-07-08T02:55:29;19.20;66.50
4501;DHT22;2263;54.654;9.410;2023-07-08T02:57:58;19.30;66.30
4501;DHT22;2263;54.654;9.410;2023-07-08T03:00:25;19.20;66.40
4501;DHT22;2263;54.654;9.410;2023-07-08T03:02:53;19.20;66.40
4501;DHT22;2263;54.654;9.410;2023-07-08T03:05:21;19.20;66.50
4501;DHT22;2263;54.654;9.410;2023-07-08T03:07:48;19.10;66.60
4501;DHT22;2263;54.654;9.410;2023-07-08T03:10:16;19.10;66.20
4501;DHT22;2263;54.654;9.410;2023-07-08T03:12:44;19.10;66.70
4501;DHT22;2263;54.654;9.410;2023-07-08T03:15:11;19.10;66.30
4501;DHT22;2263;54.654;9.410;2023-07-08T03:17:39;19.00;66.60
4501;DHT22;2263;54.654;9.410;2023-07-08T03:20:09;19.00;66.50
4501;DHT22;2263;54.654;9.410;2023-07-08T03:22:37;19.00;66.60
4501;DHT22;2263;54.654;9.410;2023-07-08T03:25:05;19.00;66.60
4501;DHT22;2263;54.654;9.410;2023-07-08T03:27:34;19.00;66.60
4501;DHT22;2263;54.654;9.410;2023-07-08T03:30:01;19.00;66.60
4501;DHT22;2263;54.654;9.410;2023-07-08T03:32:31;18.90;66.50
4501;DHT22;2263;54.654;9.410;2023-07-08T03:34:59;18.90;66.70
4501;DHT22;2263;54.654;9.410;2023-07-08T03:37:29;18.90;66.60
4501;DHT22;2263;54.654;9.410;2023-07-08T03:39:57;18.90;66.60
4501;DHT22;2263;54.654;9.410;2023-07-08T03:42:24;18.90;66.70
4501;DHT22;2263;54.654;9.410;2023-07-08T03:44:52;18.80;66.70
4501;DHT22;2263;54.654;9.410;2023-07-08T03:47:19;18.80;66.80
4501;DHT22;2263;54.654;9.410;2023-07-08T03:49:47;18.80;66.60
4501;DHT22;2263;54.654;9.410;2023-07-08T03:52:16;18.80;66.70
4501;DHT22;2263;54.654;9.410;2023-07-08T03:54:44;18.70;66.70
4501;DHT22;2263;54.654;9.410;2023-07-08T03:57:12;18.70;66.80
4501;DHT22;2263;54.654;9.410;2023-07-08T03:59:39;18.70;67.10
4501;DHT22;2263;54.654;9.410;2023-07-08T04:02:10;18.70;66.90
4501;DHT22;2263;54.654;9.410;2023-07-08T04:04:38;18.70;67.10
4501;DHT22;2263;54.654;9.410;2023-07-08T04:07:06;18.70;67.00
4501;DHT22;2263;54.654;9.410;2023-07-08T04:09:33;18.70;67.10
4501;DHT22;2263;54.654;9.410;2023-07-08T04:12:01;18.60;67.10
4501;DHT22;2263;54.654;9.410;2023-07-08T04:14:29;18.70;67.20
4501;DHT22;2263;54.654;9.410;2023-07-08T04:16:58;18.60;67.20
4501;DHT22;2263;54.654;9.410;2023-07-08T04:19:26;18.60;67.30
4501;DHT22;2263;54.654;9.410;2023-07-08T04:21:54;18.60;67.30
4501;DHT22;2263;54.654;9.410;2023-07-08T04:24:25;18.60;67.50
4501;DHT22;2263;54.654;9.410;2023-07-08T04:26:53;18.60;67.60
4501;DHT22;2263;54.654;9.410;2023-07-08T04:29:22;18.60;67.80
4501;DHT22;2263;54.654;9.410;2023-07-08T04:31:50;18.60;67.90
4501;DHT22;2263;54.654;9.410;2023-07-08T04:34:18;18.50;67.80
4501;DHT22;2263;54.654;9.410;2023-07-08T04:36:46;18.60;68.00
4501;DHT22;2263;54.654;9.410;2023-07-08T04:39:14;18.60;68.00
4501;DHT22;2263;54.654;9.410;2023-07-08T04:41:42;18.60;68.10
4501;DHT22;2263;54.654;9.410;2023-07-08T04:44:12;18.50;68.30
4501;DHT22;2263;54.654;9.410;2023-07-08T04:46:45;18.50;69.00
4501;DHT22;2263;54.654;9.410;2023-07-08T04:49:13;18.50;68.30
4501;DHT22;2263;54.654;9.410;2023-07-08T04:51:41;18.50;68.40
4501;DHT22;2263;54.654;9.410;2023-07-08T04:54:10;18.50;68.60
4501;DHT22;2263;54.654;9.410;2023-07-08T04:56:44;18.50;68.60
4501;DHT22;2263;54.654;9.410;2023-07-08T04:59:14;18.50;68.80
4501;DHT22;2263;54.654;9.410;2023-07-08T05:01:43;18.50;69.00
4501;DHT22;2263;54.654;9.410;2023-07-08T05:04:16;18.50;69.10
4501;DHT22;2263;54.654;9.410;2023-07-08T05:06:44;18.50;69.20
4501;DHT22;2263;54.654;9.410;2023-07-08T05:09:11;18.50;69.30
4501;DHT22;2263;54.654;9.410;2023-07-08T05:11:43;18.50;69.40
4501;DHT22;2263;54.654;9.410;2023-07-08T05:14:12;18.50;69.50
4501;DHT22;2263;54.654;9.410;2023-07-08T05:16:40;18.40;69.60
4501;DHT22;2263;54.654;9.410;2023-07-08T05:19:11;18.40;69.70
4501;DHT22;2263;54.654;9.410;2023-07-08T05:21:39;18.40;69.70
4501;DHT22;2263;54.654;9.410;2023-07-08T05:24:07;18.40;70.00
4501;DHT22;2263;54.654;9.410;2023-07-08T05:26:35;18.40;70.60
4501;DHT22;2263;54.654;9.410;2023-07-08T05:29:03;18.40;70.00
4501;DHT22;2263;54.654;9.410;2023-07-08T05:31:33;18.50;70.20
4501;DHT22;2263;54.654;9.410;2023-07-08T05:34:14;18.50;70.20
4501;DHT22;2263;54.654;9.410;2023-07-08T05:36:42;18.50;70.50
4501;DHT22;2263;54.654;9.410;2023-07-08T05:39:10;18.50;70.60
4501;DHT22;2263;54.654;9.410;2023-07-08T05:41:37;18.40;70.60
4501;DHT22;2263;54.654;9.410;2023-07-08T05:44:05;18.50;70.70
4501;DHT22;2263;54.654;9.410;2023-07-08T05:46:33;18.50;70.80
4501;DHT22;2263;54.654;9.410;2023-07-08T05:49:00;18.50;70.70
4501;DHT22;2263;54.654;9.410;2023-07-08T05:51:28;18.50;70.70
4501;DHT22;2263;54.654;9.410;2023-07-08T05:53:57;18.50;70.90
4501;DHT22;2263;54.654;9.410;2023-07-08T05:56:24;18.50;71.00
4501;DHT22;2263;54.654;9.410;2023-07-08T05:58:52;18.50;71.10
4501;DHT22;2263;54.654;9.410;2023-07-08T06:01:22;18.50;71.00
4501;DHT22;2263;54.654;9.410;2023-07-08T06:03:50;18.50;71.20
4501;DHT22;2263;54.654;9.410;2023-07-08T06:06:18;18.50;71.30
4501;DHT22;2263;54.654;9.410;2023-07-08T06:08:46;18.50;71.40
4501;DHT22;2263;54.654;9.410;2023-07-08T06:11:13;18.50;71.50
4501;DHT22;2263;54.654;9.410;2023-07-08T06:13:41;18.50;71.50
4501;DHT22;2263;54.654;9.410;2023-07-08T06:16:09;18.50;71.80
4501;DHT22;2263;54.654;9.410;2023-07-08T06:18:36;18.50;72.00
4501;DHT22;2263;54.654;9.410;2023-07-08T06:21:05;18.60;72.20
4501;DHT22;2263;54.654;9.410;2023-07-08T06:23:33;18.60;72.50
4501;DHT22;2263;54.654;9.410;2023-07-08T06:26:01;18.60;73.20
4501;DHT22;2263;54.654;9.410;2023-07-08T06:28:29;18.60;73.40
4501;DHT22;2263;54.654;9.410;2023-07-08T06:30:56;18.60;73.40
4501;DHT22;2263;54.654;9.410;2023-07-08T06:33:24;18.60;73.30
4501;DHT22;2263;54.654;9.410;2023-07-08T06:35:52;18.60;74.20
4501;DHT22;2263;54.654;9.410;2023-07-08T06:38:20;18.70;74.10
4501;DHT22;2263;54.654;9.410;2023-07-08T06:40:47;18.70;74.10
4501;DHT22;2263;54.654;9.410;2023-07-08T06:43:15;18.70;74.60
4501;DHT22;2263;54.654;9.410;2023-07-08T06:45:43;18.70;74.90
4501;DHT22;2263;54.654;9.410;2023-07-08T06:48:11;18.70;75.20
4501;DHT22;2263;54.654;9.410;2023-07-08T06:50:42;18.80;75.10
4501;DHT22;2263;54.654;9.410;2023-07-08T06:53:13;18.80;75.20
4501;DHT22;2263;54.654;9.410;2023-07-08T06:55:41;18.80;75.30
4501;DHT22;2263;54.654;9.410;2023-07-08T06:58:09;18.80;75.00
4501;DHT22;2263;54.654;9.410;2023-07-08T07:00:36;18.80;75.20
4501;DHT22;2263;54.654;9.410;2023-07-08T07:03:04;18.90;75.00
4501;DHT22;2263;54.654;9.410;2023-07-08T07:05:32;18.90;75.10
4501;DHT22;2263;54.654;9.410;2023-07-08T07:07:59;18.90;75.10
4501;DHT22;2263;54.654;9.410;2023-07-08T07:10:27;19.00;75.20
4501;DHT22;2263;54.654;9.410;2023-07-08T07:12:55;19.00;75.00
4501;DHT22;2263;54.654;9.410;2023-07-08T07:15:22;19.00;75.10
4501;DHT22;2263;54.654;9.410;2023-07-08T07:17:52;19.00;74.90
4501;DHT22;2263;54.654;9.410;2023-07-08T07:20:20;19.10;74.90
4501;DHT22;2263;54.654;9.410;2023-07-08T07:22:48;19.10;75.10
4501;DHT22;2263;54.654;9.410;2023-07-08T07:25:15;19.10;75.10
4501;DHT22;2263;54.654;9.410;2023-07-08T07:27:43;19.10;75.20
4501;DHT22;2263;54.654;9.410;2023-07-08T07:30:11;19.10;75.10
4501;DHT22;2263;54.654;9.410;2023-07-08T07:32:43;19.20;75.30
4501;DHT22;2263;54.654;9.410;2023-07-08T07:35:11;19.20;75.10
4501;DHT22;2263;54.654;9.410;2023-07-08T07:37:42;19.20;75.20
4501;DHT22;2263;54.654;9.410;2023-07-08T07:40:12;19.30;75.20
4501;DHT22;2263;54.654;9.410;2023-07-08T07:42:43;19.30;75.30
4501;DHT22;2263;54.654;9.410;2023-07-08T07:45:12;19.30;75.30
4501;DHT22;2263;54.654;9.410;2023-07-08T07:47:40;19.40;75.50
4501;DHT22;2263;54.654;9.410;2023-07-08T07:50:09;19.40;75.40
4501;DHT22;2263;54.654;9.410;2023-07-08T07:52:37;19.50;75.30
4501;DHT22;2263;54.654;9.410;2023-07-08T07:55:05;19.50;75.30
4501;DHT22;2263;54.654;9.410;2023-07-08T07:57:32;19.50;75.30
4501;DHT22;2263;54.654;9.410;2023-07-08T08:00:00;19.50;75.30
4501;DHT22;2263;54.654;9.410;2023-07-08T08:02:28;19.50;75.30
4501;DHT22;2263;54.654;9.410;2023-07-08T08:04:55;19.60;75.30
4501;DHT22;2263;54.654;9.410;2023-07-08T08:07:23;19.60;75.60
4501;DHT22;2263;54.654;9.410;2023-07-08T08:09:51;19.70;75.40
4501;DHT22;2263;54.654;9.410;2023-07-08T08:12:19;19.70;75.40
4501;DHT22;2263;54.654;9.410;2023-07-08T08:14:46;19.70;75.50
4501;DHT22;2263;54.654;9.410;2023-07-08T08:17:14;19.70;75.30
4501;DHT22;2263;54.654;9.410;2023-07-08T08:19:41;19.80;75.40
4501;DHT22;2263;54.654;9.410;2023-07-08T08:22:09;19.80;75.30
4501;DHT22;2263;54.654;9.410;2023-07-08T08:24:37;19.80;75.30
4501;DHT22;2263;54.654;9.410;2023-07-08T08:27:05;19.90;75.10
4501;DHT22;2263;54.654;9.410;2023-07-08T08:29:32;19.90;74.90
4501;DHT22;2263;54.654;9.410;2023-07-08T08:32:00;19.90;74.70
4501;DHT22;2263;54.654;9.410;2023-07-08T08:34:28;20.00;74.90
4501;DHT22;2263;54.654;9.410;2023-07-08T08:36:55;20.10;74.50
4501;DHT22;2263;54.654;9.410;2023-07-08T08:39:23;20.10;74.30
4501;DHT22;2263;54.654;9.410;2023-07-08T08:41:53;20.10;74.20
4501;DHT22;2263;54.654;9.410;2023-07-08T08:44:33;20.10;74.20
4501;DHT22;2263;54.654;9.410;2023-07-08T08:52:39;20.20;74.40
4501;DHT22;2263;54.654;9.410;2023-07-08T08:55:12;20.30;74.70
4501;DHT22;2263;54.654;9.410;2023-07-08T08:57:45;20.30;74.70
4501;DHT22;2263;54.654;9.410;2023-07-08T09:00:19;20.30;74.60
4501;DHT22;2263;54.654;9.410;2023-07-08T09:03:17;20.40;74.50
4501;DHT22;2263;54.654;9.410;2023-07-08T09:05:46;20.40;74.30
4501;DHT22;2263;54.654;9.410;2023-07-08T09:08:26;20.50;74.40
4501;DHT22;2263;54.654;9.410;2023-07-08T09:11:26;20.50;74.50
4501;DHT22;2263;54.654;9.410;2023-07-08T09:13:55;20.50;74.50
4501;DHT22;2263;54.654;9.410;2023-07-08T09:16:44;20.60;74.50
4501;DHT22;2263;54.654;9.410;2023-07-08T09:21:51;20.70;74.40
4501;DHT22;2263;54.654;9.410;2023-07-08T09:26:55;20.80;74.40
4501;DHT22;2263;54.654;9.410;2023-07-08T09:29:25;20.80;74.10
4501;DHT22;2263;54.654;9.410;2023-07-08T09:31:53;20.80;74.20
4501;DHT22;2263;54.654;9.410;2023-07-08T09:34:23;20.90;74.40
4501;DHT22;2263;54.654;9.410;2023-07-08T09:37:03;20.90;74.20
4501;DHT22;2263;54.654;9.410;2023-07-08T09:39:45;20.90;74.30
4501;DHT22;2263;54.654;9.410;2023-07-08T09:42:13;21.00;74.10
4501;DHT22;2263;54.654;9.410;2023-07-08T09:44:45;21.00;73.70
4501;DHT22;2263;54.654;9.410;2023-07-08T09:47:32;21.10;73.70
4501;DHT22;2263;54.654;9.410;2023-07-08T09:50:10;21.20;73.60
4501;DHT22;2263;54.654;9.410;2023-07-08T09:52:43;21.10;73.60
4501;DHT22;2263;54.654;9.410;2023-07-08T09:55:11;21.20;73.50
4501;DHT22;2263;54.654;9.410;2023-07-08T09:57:40;21.20;73.50
4501;DHT22;2263;54.654;9.410;2023-07-08T10:00:16;21.30;73.70
4501;DHT22;2263;54.654;9.410;2023-07-08T10:02:57;21.30;73.50
4501;DHT22;2263;54.654;9.410;2023-07-08T10:05:33;21.30;73.60
4501;DHT22;2263;54.654;9.410;2023-07-08T10:08:08;21.40;73.60
4501;DHT22;2263;54.654;9.410;2023-07-08T10:10:39;21.50;73.60
4501;DHT22;2263;54.654;9.410;2023-07-08T10:13:17;21.50;73.20
4501;DHT22;2263;54.654;9.410;2023-07-08T10:16:02;21.50;72.90
4501;DHT22;2263;54.654;9.410;2023-07-08T10:18:37;21.60;73.00
4501;DHT22;2263;54.654;9.410;2023-07-08T10:24:26;21.70;72.80
4501;DHT22;2263;54.654;9.410;2023-07-08T10:30:08;21.80;72.80
4501;DHT22;2263;54.654;9.410;2023-07-08T10:32:54;21.80;72.70
4501;DHT22;2263;54.654;9.410;2023-07-08T10:35:28;21.80;72.60
4501;DHT22;2263;54.654;9.410;2023-07-08T10:40:54;21.90;72.70
4501;DHT22;2263;54.654;9.410;2023-07-08T10:48:56;22.00;72.80
4501;DHT22;2263;54.654;9.410;2023-07-08T10:55:13;22.10;73.10
4501;DHT22;2263;54.654;9.410;2023-07-08T11:06:41;22.30;72.30
4501;DHT22;2263;54.654;9.410;2023-07-08T11:09:16;22.40;72.50
4501;DHT22;2263;54.654;9.410;2023-07-08T11:11:53;22.40;72.50
4501;DHT22;2263;54.654;9.410;2023-07-08T11:17:08;22.50;72.50
4501;DHT22;2263;54.654;9.410;2023-07-08T11:19:44;22.50;72.30
4501;DHT22;2263;54.654;9.410;2023-07-08T11:22:15;22.60;72.20
4501;DHT22;2263;54.654;9.410;2023-07-08T11:24:50;22.60;72.20
4501;DHT22;2263;54.654;9.410;2023-07-08T11:27:26;22.60;72.20
4501;DHT22;2263;54.654;9.410;2023-07-08T11:30:02;22.70;72.30
4501;DHT22;2263;54.654;9.410;2023-07-08T11:32:33;22.70;72.30
4501;DHT22;2263;54.654;9.410;2023-07-08T11:35:05;22.80;72.20
4501;DHT22;2263;54.654;9.410;2023-07-08T11:37:34;22.80;72.30
4501;DHT22;2263;54.654;9.410;2023-07-08T11:42:37;22.90;71.70
4501;DHT22;2263;54.654;9.410;2023-07-08T11:45:21;23.00;71.70
4501;DHT22;2263;54.654;9.410;2023-07-08T11:47:50;23.00;71.80
4501;DHT22;2263;54.654;9.410;2023-07-08T11:53:08;23.10;71.70
4501;DHT22;2263;54.654;9.410;2023-07-08T11:55:48;23.10;71.70
4501;DHT22;2263;54.654;9.410;2023-07-08T12:04:15;23.20;72.00
4501;DHT22;2263;54.654;9.410;2023-07-08T12:06:47;23.30;72.00
4501;DHT22;2263;54.654;9.410;2023-07-08T12:09:23;23.30;71.80
4501;DHT22;2263;54.654;9.410;2023-07-08T12:11:57;23.40;71.90
4501;DHT22;2263;54.654;9.410;2023-07-08T12:14:25;23.40;71.80
4501;DHT22;2263;54.654;9.410;2023-07-08T12:16:55;23.40;71.50
4501;DHT22;2263;54.654;9.410;2023-07-08T12:19:25;23.50;71.50
4501;DHT22;2263;54.654;9.410;2023-07-08T12:21:56;23.50;71.10
4501;DHT22;2263;54.654;9.410;2023-07-08T12:24:24;23.60;71.10
4501;DHT22;2263;54.654;9.410;2023-07-08T12:26:54;23.60;71.00
4501;DHT22;2263;54.654;9.410;2023-07-08T12:29:22;23.60;71.10
4501;DHT22;2263;54.654;9.410;2023-07-08T12:31:50;23.60;70.90
4501;DHT22;2263;54.654;9.410;2023-07-08T12:34:18;23.70;70.80
4501;DHT22;2263;54.654;9.410;2023-07-08T12:36:46;23.70;70.70
4501;DHT22;2263;54.654;9.410;2023-07-08T12:39:16;23.70;70.90
4501;DHT22;2263;54.654;9.410;2023-07-08T12:41:45;23.80;71.00
4501;DHT22;2263;54.654;9.410;2023-07-08T12:44:31;23.80;70.90
4501;DHT22;2263;54.654;9.410;2023-07-08T12:47:03;23.80;70.70
4501;DHT22;2263;54.654;9.410;2023-07-08T12:49:34;23.90;70.80
4501;DHT22;2263;54.654;9.410;2023-07-08T12:52:02;23.90;70.70
4501;DHT22;2263;54.654;9.410;2023-07-08T12:54:30;23.90;70.70
4501;DHT22;2263;54.654;9.410;2023-07-08T12:56:58;24.00;70.90
4501;DHT22;2263;54.654;9.410;2023-07-08T12:59:26;24.00;70.90
4501;DHT22;2263;54.654;9.410;2023-07-08T13:01:54;24.00;71.00
4501;DHT22;2263;54.654;9.410;2023-07-08T13:04:22;24.10;71.00
4501;DHT22;2263;54.654;9.410;2023-07-08T13:06:50;24.10;70.80
4501;DHT22;2263;54.654;9.410;2023-07-08T13:09:43;24.10;70.80
4501;DHT22;2263;54.654;9.410;2023-07-08T13:12:17;24.10;70.50
4501;DHT22;2263;54.654;9.410;2023-07-08T13:14:50;24.20;70.50
4501;DHT22;2263;54.654;9.410;2023-07-08T13:17:19;24.20;70.10
4501;DHT22;2263;54.654;9.410;2023-07-08T13:19:48;24.30;70.00
4501;DHT22;2263;54.654;9.410;2023-07-08T13:22:18;24.30;70.00
4501;DHT22;2263;54.654;9.410;2023-07-08T13:24:47;24.30;70.00
4501;DHT22;2263;54.654;9.410;2023-07-08T13:27:22;24.30;70.10
4501;DHT22;2263;54.654;9.410;2023-07-08T13:29:55;24.30;69.80
4501;DHT22;2263;54.654;9.410;2023-07-08T13:32:31;24.40;70.00
4501;DHT22;2263;54.654;9.410;2023-07-08T13:34:59;24.40;69.70
4501;DHT22;2263;54.654;9.410;2023-07-08T13:37:30;24.40;69.70
4501;DHT22;2263;54.654;9.410;2023-07-08T13:39:58;24.40;69.60
4501;DHT22;2263;54.654;9.410;2023-07-08T13:42:26;24.50;68.10
4501;DHT22;2263;54.654;9.410;2023-07-08T13:44:54;24.50;68.30
4501;DHT22;2263;54.654;9.410;2023-07-08T13:47:26;24.50;68.60
4501;DHT22;2263;54.654;9.410;2023-07-08T13:50:22;24.50;68.30
4501;DHT22;2263;54.654;9.410;2023-07-08T13:52:56;24.50;68.70
4501;DHT22;2263;54.654;9.410;2023-07-08T13:55:24;24.50;68.70
4501;DHT22;2263;54.654;9.410;2023-07-08T13:57:59;24.60;69.00
4501;DHT22;2263;54.654;9.410;2023-07-08T14:00:29;24.60;69.00
4501;DHT22;2263;54.654;9.410;2023-07-08T14:02:58;24.60;68.90
4501;DHT22;2263;54.654;9.410;2023-07-08T14:05:26;24.70;68.80
4501;DHT22;2263;54.654;9.410;2023-07-08T14:07:54;24.70;68.70
4501;DHT22;2263;54.654;9.410;2023-07-08T14:10:22;24.70;68.60
4501;DHT22;2263;54.654;9.410;2023-07-08T14:12:49;24.70;68.10
4501;DHT22;2263;54.654;9.410;2023-07-08T14:15:17;24.70;68.60
4501;DHT22;2263;54.654;9.410;2023-07-08T14:17:45;24.70;68.40
4501;DHT22;2263;54.654;9.410;2023-07-08T14:20:15;24.70;68.30
4501;DHT22;2263;54.654;9.410;2023-07-08T14:22:43;24.80;68.10
4501;DHT22;2263;54.654;9.410;2023-07-08T14:25:14;24.80;68.10
4501;DHT22;2263;54.654;9.410;2023-07-08T14:27:42;24.80;68.10
4501;DHT22;2263;54.654;9.410;2023-07-08T14:30:10;24.80;67.70
4501;DHT22;2263;54.654;9.410;2023-07-08T14:32:38;24.80;67.60
4501;DHT22;2263;54.654;9.410;2023-07-08T14:35:21;24.80;67.90
4501;DHT22;2263;54.654;9.410;2023-07-08T14:37:50;24.80;67.90
4501;DHT22;2263;54.654;9.410;2023-07-08T14:43:02;24.90;67.80
4501;DHT22;2263;54.654;9.410;2023-07-08T14:45:42;24.90;68.00
4501;DHT22;2263;54.654;9.410;2023-07-08T14:48:12;24.90;68.40
4501;DHT22;2263;54.654;9.410;2023-07-08T14:50:47;24.90;68.30
4501;DHT22;2263;54.654;9.410;2023-07-08T14:53:16;25.00;68.30
4501;DHT22;2263;54.654;9.410;2023-07-08T14:55:46;25.00;68.50
4501;DHT22;2263;54.654;9.410;2023-07-08T15:00:53;25.00;67.70
4501;DHT22;2263;54.654;9.410;2023-07-08T15:03:23;25.00;67.50
4501;DHT22;2263;54.654;9.410;2023-07-08T15:05:51;25.00;67.70
4501;DHT22;2263;54.654;9.410;2023-07-08T15:08:18;25.00;68.00
4501;DHT22;2263;54.654;9.410;2023-07-08T15:10:50;25.00;67.40
4501;DHT22;2263;54.654;9.410;2023-07-08T15:13:20;25.00;67.60
4501;DHT22;2263;54.654;9.410;2023-07-08T15:15:49;25.00;67.10
4501;DHT22;2263;54.654;9.410;2023-07-08T15:18:18;25.00;67.80
4501;DHT22;2263;54.654;9.410;2023-07-08T15:20:48;25.00;67.20
4501;DHT22;2263;54.654;9.410;2023-07-08T15:23:15;25.00;67.60
4501;DHT22;2263;54.654;9.410;2023-07-08T15:25:46;25.00;67.60
4501;DHT22;2263;54.654;9.410;2023-07-08T15:28:19;25.00;67.70
4501;DHT22;2263;54.654;9.410;2023-07-08T15:30:48;25.00;67.70
4501;DHT22;2263;54.654;9.410;2023-07-08T15:33:16;25.10;68.00
4501;DHT22;2263;54.654;9.410;2023-07-08T15:35:44;25.00;67.40
4501;DHT22;2263;54.654;9.410;2023-07-08T15:38:11;25.10;67.40
4501;DHT22;2263;54.654;9.410;2023-07-08T15:40:39;25.10;67.60
4501;DHT22;2263;54.654;9.410;2023-07-08T15:43:12;25.10;67.10
4501;DHT22;2263;54.654;9.410;2023-07-08T15:45:41;25.10;66.70
4501;DHT22;2263;54.654;9.410;2023-07-08T23:40:52;22.30;65.40
4501;DHT22;2263;54.654;9.410;2023-07-08T23:43:20;22.30;65.60
4501;DHT22;2263;54.654;9.410;2023-07-08T23:45:48;22.30;65.60
4501;DHT22;2263;54.654;9.410;2023-07-08T23:48:18;22.30;65.60
4501;DHT22;2263;54.654;9.410;2023-07-08T23:50:46;22.30;65.60
4501;DHT22;2263;54.654;9.410;2023-07-08T23:53:15;22.20;65.60
4501;DHT22;2263;54.654;9.410;2023-07-08T23:55:45;22.20;65.60
4501;DHT22;2263;54.654;9.410;2023-07-08T23:58:21;22.20;65.60
